Aviation Digital Data Service (ADDS)

Output produced by METARs form (2341 UTC 22 May 2015)
found at http://aviationweather.gov/adds/metars/
 
KJFK 222338Z 2300/2406 29017G26KT P6SM VCSH SCT070 BKN100 
     TEMPO 2300/2302 -SHRA 
     FM230200 32017G25KT P6SM SCT120 
     FM230700 32014G21KT P6SM SKC 
     FM231200 33012KT P6SM SKC 
     FM231700 26013KT P6SM SKC 
     FM231900 21016KT P6SM SKC 
     FM240200 23008KT P6SM FEW250